Akk, Virginia
Current Conditions -  °F | °C
As of 5:55 PM on Thursday 27 Nov 2014 (Local Time) from KFYJ Reporting Station
Scattered Clouds Scattered Clouds  
Wind Chill: 38°   Ceiling: Unl
Heat Index: 38°   Visibility: 10mi
Dew Point: 34°   Wind: 0mph
Humidity: 85%   Direction: NA
Pressure: 30.13"   Gusts: NA
Location:  37.4383°N, 76.5764°W
Report Text: KFYJ 272255Z AUTO 00000KT 10SM SCT065 03/01 A3013 RMK AO2 P0001 T00330010
Loading
Personal Weather Stations






























Interactive Weather Map New forecast layout! Learn more

10-Day Weather Forecast

Advertisements
Track Severe Weather on mobile